createdAt,value
2018-03-23T00:00:17.334Z,32.40
2018-03-23T00:01:17.227Z,31.00
2018-03-23T00:02:17.124Z,29.20
2018-03-23T00:03:17.034Z,31.10
2018-03-23T00:04:16.918Z,30.40
2018-03-23T00:05:16.814Z,31.50
2018-03-23T00:06:16.710Z,29.90
2018-03-23T00:07:16.607Z,29.50
2018-03-23T00:08:16.504Z,29.60
2018-03-23T00:09:16.406Z,29.10
2018-03-23T00:10:16.291Z,29.90
2018-03-23T00:11:16.194Z,28.70
2018-03-23T00:12:16.091Z,28.20
2018-03-23T00:13:15.987Z,28.10
2018-03-23T00:14:15.884Z,29.70
2018-03-23T00:15:15.780Z,27.00
2018-03-23T00:16:15.677Z,28.40
2018-03-23T00:17:15.574Z,26.50
2018-03-23T00:18:15.475Z,28.90
2018-03-23T00:19:15.367Z,27.50
2018-03-23T00:20:15.264Z,27.40
2018-03-23T00:21:15.160Z,25.90
2018-03-23T00:22:15.046Z,26.50
2018-03-23T00:23:14.943Z,24.00
2018-03-23T00:24:14.840Z,25.40
2018-03-23T00:25:14.735Z,25.70
2018-03-23T00:26:14.632Z,25.90
2018-03-23T00:27:14.529Z,25.70
2018-03-23T00:28:14.426Z,25.20
2018-03-23T00:29:14.339Z,24.80
2018-03-23T00:30:14.219Z,23.60
2018-03-23T00:31:14.116Z,24.80
2018-03-23T00:32:14.013Z,24.50
2018-03-23T00:33:13.912Z,24.00
2018-03-23T00:34:13.807Z,24.30
2018-03-23T00:35:13.703Z,24.50
2018-03-23T00:36:13.599Z,24.40
2018-03-23T00:37:13.496Z,24.10
2018-03-23T00:38:13.392Z,25.30
2018-03-23T00:39:13.289Z,24.30
2018-03-23T00:40:13.186Z,24.10
2018-03-23T00:41:13.083Z,23.10
2018-03-23T00:42:12.985Z,24.10
2018-03-23T00:43:12.866Z,24.30
2018-03-23T00:44:12.761Z,23.30
2018-03-23T00:45:12.661Z,22.50
2018-03-23T00:46:12.553Z,22.60
2018-03-23T00:47:12.462Z,22.80
2018-03-23T00:48:12.346Z,22.00
2018-03-23T00:49:12.244Z,22.60
2018-03-23T00:50:12.140Z,22.30
2018-03-23T00:51:12.036Z,21.40
2018-03-23T00:52:11.932Z,21.60
2018-03-23T00:53:11.829Z,20.70
2018-03-23T00:54:11.725Z,21.70
2018-03-23T00:55:11.623Z,21.90
2018-03-23T00:56:11.519Z,21.50
2018-03-23T00:57:11.416Z,21.50
2018-03-23T00:58:11.313Z,20.30
2018-03-23T00:59:11.210Z,21.20
2018-03-23T01:00:11.119Z,21.10
2018-03-23T01:01:11.002Z,20.80
2018-03-23T01:02:10.904Z,20.30
2018-03-23T01:03:10.796Z,22.10
2018-03-23T01:04:10.693Z,21.70
2018-03-23T01:05:10.602Z,21.90
2018-03-23T01:06:10.475Z,20.80
2018-03-23T01:07:10.371Z,22.00
2018-03-23T01:08:10.269Z,20.60
2018-03-23T01:09:10.168Z,22.20
2018-03-23T01:10:10.061Z,21.20
2018-03-23T01:11:09.958Z,21.80
2018-03-23T01:12:09.854Z,21.20
2018-03-23T01:13:09.751Z,20.70
2018-03-23T01:14:09.648Z,20.20
2018-03-23T01:15:09.545Z,17.70
2018-03-23T01:16:09.441Z,17.90
2018-03-23T01:17:09.339Z,17.70
2018-03-23T01:18:09.239Z,18.70
2018-03-23T01:19:09.131Z,18.00
2018-03-23T01:20:09.028Z,18.60
2018-03-23T01:21:08.924Z,18.80
2018-03-23T01:22:08.822Z,16.60
2018-03-23T01:23:08.719Z,19.30
2018-03-23T01:24:08.615Z,18.20
2018-03-23T01:25:08.500Z,18.80
2018-03-23T01:26:08.397Z,17.40
2018-03-23T01:27:08.305Z,18.70
2018-03-23T01:28:08.187Z,19.60
2018-03-23T01:29:08.084Z,19.00
2018-03-23T01:30:07.981Z,18.60
2018-03-23T01:31:07.879Z,19.90
2018-03-23T01:32:07.775Z,19.30
2018-03-23T01:33:07.672Z,18.50
2018-03-23T01:34:07.568Z,19.20
2018-03-23T01:35:07.465Z,20.40
2018-03-23T01:36:07.349Z,19.60
2018-03-23T01:37:07.255Z,17.80
2018-03-23T01:38:07.142Z,20.00
2018-03-23T01:39:07.040Z,21.10
2018-03-23T01:40:06.936Z,20.20
2018-03-23T01:41:06.834Z,19.90
2018-03-23T01:42:06.730Z,19.60
2018-03-23T01:43:06.632Z,20.30
2018-03-23T01:44:06.512Z,19.80
2018-03-23T01:45:06.407Z,20.60
2018-03-23T01:46:06.303Z,21.40
2018-03-23T01:47:06.201Z,17.40
2018-03-23T01:48:06.096Z,19.80
2018-03-23T01:49:05.998Z,20.50
2018-03-23T01:50:05.893Z,20.30
2018-03-23T01:51:05.786Z,20.90
2018-03-23T01:52:05.933Z,21.20
2018-03-23T01:53:05.580Z,18.80
2018-03-23T01:54:05.464Z,19.20
2018-03-23T01:55:05.362Z,19.30
2018-03-23T01:56:05.259Z,20.00
2018-03-23T01:57:05.156Z,19.90
2018-03-23T01:58:05.052Z,21.10
2018-03-23T01:59:04.949Z,21.00
2018-03-23T02:00:04.845Z,20.50
2018-03-23T02:01:04.742Z,21.50
2018-03-23T02:02:04.926Z,20.60
2018-03-23T02:03:04.523Z,21.90
2018-03-23T02:04:04.419Z,22.00
2018-03-23T02:05:04.316Z,21.90
2018-03-23T02:06:04.212Z,21.40
2018-03-23T02:07:04.108Z,23.40
2018-03-23T02:08:04.005Z,23.10
2018-03-23T02:09:03.901Z,22.10
2018-03-23T02:10:03.798Z,24.20
2018-03-23T02:11:03.683Z,22.90
2018-03-23T02:12:03.581Z,23.20
2018-03-23T02:13:03.478Z,23.90
2018-03-23T02:14:03.374Z,23.30
2018-03-23T02:15:03.270Z,23.70
2018-03-23T02:16:03.166Z,24.60
2018-03-23T02:17:03.063Z,23.50
2018-03-23T02:18:02.961Z,23.80
2018-03-23T02:19:02.845Z,24.50
2018-03-23T02:20:02.741Z,24.80
2018-03-23T02:21:02.637Z,23.30
2018-03-23T02:22:02.834Z,22.90
2018-03-23T02:23:02.431Z,22.90
2018-03-23T02:24:02.328Z,25.00
2018-03-23T02:25:02.223Z,23.90
2018-03-23T02:26:02.120Z,24.60
2018-03-23T02:27:02.017Z,25.20
2018-03-23T02:28:01.902Z,25.80
2018-03-23T02:29:01.799Z,25.20
2018-03-23T02:30:01.697Z,23.80
2018-03-23T02:31:01.593Z,25.10
2018-03-23T02:32:01.496Z,24.70
2018-03-23T02:33:01.387Z,24.40
2018-03-23T02:34:01.274Z,23.60
2018-03-23T02:35:01.180Z,23.50
2018-03-23T02:36:01.077Z,24.30
2018-03-23T02:37:00.962Z,23.40
2018-03-23T02:38:00.859Z,23.90
2018-03-23T02:39:00.752Z,22.50
2018-03-23T02:40:00.648Z,23.20
2018-03-23T02:41:00.546Z,22.40
2018-03-23T02:42:00.442Z,22.60
2018-03-23T02:43:00.340Z,22.60
2018-03-23T02:44:00.238Z,22.80
2018-03-23T02:45:00.122Z,23.30
2018-03-23T02:46:00.028Z,23.70
2018-03-23T02:46:59.915Z,24.40
2018-03-23T02:47:59.811Z,23.40
2018-03-23T02:48:59.708Z,23.30
2018-03-23T02:49:59.605Z,22.40
2018-03-23T02:50:59.501Z,22.50
2018-03-23T02:51:59.399Z,21.50
2018-03-23T02:52:59.283Z,23.20
2018-03-23T02:53:59.178Z,21.50
2018-03-23T02:54:59.138Z,22.90
2018-03-23T02:55:58.972Z,22.70
2018-03-23T02:56:58.869Z,22.20
2018-03-23T02:57:58.766Z,22.60
2018-03-23T02:58:58.662Z,21.90
2018-03-23T02:59:58.559Z,22.30
2018-03-23T03:00:58.444Z,22.30
2018-03-23T03:01:58.342Z,22.70
2018-03-23T03:02:58.236Z,22.20
2018-03-23T03:03:58.133Z,22.10
2018-03-23T03:04:58.030Z,20.80
2018-03-23T03:05:57.927Z,23.10
2018-03-23T03:06:58.072Z,21.90
2018-03-23T03:07:57.724Z,22.40
2018-03-23T03:08:57.603Z,21.50
2018-03-23T03:09:57.499Z,21.30
2018-03-23T03:10:57.397Z,21.40
2018-03-23T03:11:57.292Z,21.10
2018-03-23T03:12:57.191Z,21.10
2018-03-23T03:13:57.100Z,21.90
2018-03-23T03:14:56.982Z,21.70
2018-03-23T03:15:56.879Z,20.40
2018-03-23T03:16:56.768Z,21.20
2018-03-23T03:17:56.662Z,19.50
2018-03-23T03:18:56.558Z,19.50
2018-03-23T03:19:56.455Z,20.20
2018-03-23T03:20:56.351Z,20.80
2018-03-23T03:21:56.248Z,19.60
2018-03-23T03:22:56.144Z,19.80
2018-03-23T03:23:56.029Z,20.10
2018-03-23T03:24:55.926Z,21.40
2018-03-23T03:25:55.821Z,19.50
2018-03-23T03:26:55.717Z,20.40
2018-03-23T03:27:55.621Z,21.30
2018-03-23T03:28:55.512Z,20.40
2018-03-23T03:29:55.408Z,20.30
2018-03-23T03:30:55.307Z,19.70
2018-03-23T03:31:55.190Z,20.70
2018-03-23T03:32:55.086Z,20.60
2018-03-23T03:33:54.983Z,21.60
2018-03-23T03:34:54.880Z,20.60
2018-03-23T03:35:54.779Z,20.40
2018-03-23T03:36:54.673Z,21.10
2018-03-23T03:37:54.570Z,20.90
2018-03-23T03:38:54.454Z,21.60
2018-03-23T03:39:54.350Z,20.60
2018-03-23T03:40:54.247Z,21.00
2018-03-23T03:41:54.146Z,20.20
2018-03-23T03:42:54.045Z,20.20
2018-03-23T03:43:53.937Z,20.90
2018-03-23T03:44:53.835Z,19.70
2018-03-23T03:45:53.730Z,20.30
2018-03-23T03:46:53.622Z,21.10
2018-03-23T03:47:53.512Z,20.80
2018-03-23T03:48:53.407Z,20.20
2018-03-23T03:49:53.305Z,21.10
2018-03-23T03:50:53.202Z,20.50
2018-03-23T03:51:53.099Z,21.40
2018-03-23T03:52:52.994Z,20.70
2018-03-23T03:53:52.880Z,20.30
2018-03-23T03:54:52.787Z,20.20
2018-03-23T03:55:52.676Z,18.90
2018-03-23T03:56:52.819Z,19.20
2018-03-23T03:57:52.465Z,19.50
2018-03-23T03:58:52.362Z,19.40
2018-03-23T03:59:52.259Z,19.60
2018-03-23T04:00:52.155Z,20.20
2018-03-23T04:01:52.052Z,18.80
2018-03-23T04:02:51.938Z,19.50
2018-03-23T04:03:51.837Z,19.60
2018-03-23T04:04:51.731Z,20.10
2018-03-23T04:05:51.627Z,19.70
2018-03-23T04:06:51.774Z,19.00
2018-03-23T04:07:51.420Z,18.90
2018-03-23T04:08:51.317Z,18.80
2018-03-23T04:09:51.202Z,18.30
2018-03-23T04:10:51.098Z,19.60
2018-03-23T04:11:50.994Z,20.00
2018-03-23T04:12:50.890Z,20.00
2018-03-23T04:13:50.787Z,20.50
2018-03-23T04:14:50.685Z,19.90
2018-03-23T04:15:50.595Z,19.50
2018-03-23T04:16:50.477Z,19.80
2018-03-23T04:17:50.373Z,20.10
2018-03-23T04:18:50.258Z,19.20
2018-03-23T04:19:50.156Z,20.70
2018-03-23T04:20:50.052Z,19.70
2018-03-23T04:21:49.949Z,20.00
2018-03-23T04:22:49.847Z,20.20
2018-03-23T04:23:49.742Z,20.70
2018-03-23T04:24:49.639Z,19.90
2018-03-23T04:25:49.541Z,20.10
2018-03-23T04:26:49.421Z,20.50
2018-03-23T04:27:49.344Z,20.20
2018-03-23T04:28:49.212Z,20.00
2018-03-23T04:29:49.109Z,20.00
2018-03-23T04:30:49.006Z,20.60
2018-03-23T04:31:48.903Z,20.70
2018-03-23T04:32:48.799Z,19.30
2018-03-23T04:33:48.696Z,19.80
2018-03-23T04:34:48.593Z,20.70
2018-03-23T04:35:48.489Z,20.10
2018-03-23T04:36:48.381Z,19.70
2018-03-23T04:37:48.275Z,19.80
2018-03-23T04:38:48.168Z,19.60
2018-03-23T04:39:48.065Z,20.00
2018-03-23T04:40:47.962Z,19.70
2018-03-23T04:41:48.108Z,19.90
2018-03-23T04:42:47.755Z,20.10
2018-03-23T04:43:47.652Z,20.30
2018-03-23T04:44:47.548Z,20.90
2018-03-23T04:45:47.432Z,21.00
2018-03-23T04:46:47.342Z,20.70
2018-03-23T04:47:47.224Z,20.80
2018-03-23T04:48:47.121Z,20.20
2018-03-23T04:49:47.018Z,20.50
2018-03-23T04:50:46.915Z,21.20
2018-03-23T04:51:46.810Z,21.10
2018-03-23T04:52:46.708Z,21.40
2018-03-23T04:53:46.604Z,22.20
2018-03-23T04:54:46.501Z,22.20
2018-03-23T04:55:46.387Z,22.10
2018-03-23T04:56:46.283Z,22.80
2018-03-23T04:57:46.179Z,22.60
2018-03-23T04:58:46.076Z,23.30
2018-03-23T04:59:45.978Z,23.40
2018-03-23T05:00:45.869Z,23.40
2018-03-23T05:01:46.016Z,23.20
2018-03-23T05:02:45.666Z,23.70
2018-03-23T05:03:45.559Z,23.80
2018-03-23T05:04:45.457Z,23.90
2018-03-23T05:05:45.340Z,24.50
2018-03-23T05:06:45.245Z,23.70
2018-03-23T05:07:45.133Z,23.80
2018-03-23T05:08:45.043Z,24.70
2018-03-23T05:09:44.927Z,24.30
2018-03-23T05:10:44.826Z,24.30
2018-03-23T05:11:44.720Z,24.30
2018-03-23T05:12:44.617Z,24.90
2018-03-23T05:13:44.519Z,25.50
2018-03-23T05:14:44.409Z,24.70
2018-03-23T05:15:44.307Z,24.90
2018-03-23T05:16:44.193Z,25.00
2018-03-23T05:17:44.094Z,25.50
2018-03-23T05:18:43.985Z,25.10
2018-03-23T05:19:43.882Z,26.30
2018-03-23T05:20:43.779Z,26.10
2018-03-23T05:21:43.676Z,25.60
2018-03-23T05:22:43.575Z,25.80
2018-03-23T05:23:43.469Z,27.10
2018-03-23T05:24:43.371Z,26.20
2018-03-23T05:25:43.261Z,26.60
2018-03-23T05:26:43.159Z,26.20
2018-03-23T05:27:43.046Z,25.80
2018-03-23T05:28:42.939Z,27.10
2018-03-23T05:29:42.835Z,27.10
2018-03-23T05:30:42.737Z,26.60
2018-03-23T05:31:42.642Z,25.30
2018-03-23T05:32:42.526Z,26.60
2018-03-23T05:33:42.421Z,26.60
2018-03-23T05:34:42.318Z,25.30
2018-03-23T05:35:42.215Z,25.90
2018-03-23T05:36:42.112Z,22.50
2018-03-23T05:37:42.009Z,21.10
2018-03-23T05:38:41.905Z,24.20
2018-03-23T05:39:41.802Z,24.40
2018-03-23T05:40:41.737Z,25.50
2018-03-23T05:41:41.584Z,24.30
2018-03-23T05:42:41.483Z,24.70
2018-03-23T05:43:41.377Z,24.40
2018-03-23T05:44:41.273Z,23.60
2018-03-23T05:45:41.170Z,24.00
2018-03-23T05:46:41.066Z,25.90
2018-03-23T05:47:40.964Z,24.10
2018-03-23T05:48:40.864Z,25.40
2018-03-23T05:49:40.757Z,24.30
2018-03-23T05:50:40.654Z,25.10
2018-03-23T05:51:40.552Z,24.20
2018-03-23T05:52:40.448Z,24.30
2018-03-23T05:53:40.332Z,22.80
2018-03-23T05:54:40.228Z,22.30
2018-03-23T05:55:40.124Z,19.40
2018-03-23T05:56:40.021Z,18.30
2018-03-23T05:57:39.931Z,19.10
2018-03-23T05:58:39.814Z,17.90
2018-03-23T05:59:39.710Z,18.80
2018-03-23T06:00:39.612Z,18.00
2018-03-23T06:01:39.504Z,18.00
2018-03-23T06:02:39.401Z,17.70
2018-03-23T06:03:39.297Z,17.50
2018-03-23T06:04:39.194Z,18.10
2018-03-23T06:05:39.091Z,17.80
2018-03-23T06:06:38.987Z,18.50
2018-03-23T06:07:38.883Z,18.40
2018-03-23T06:08:38.768Z,18.20
2018-03-23T06:09:38.666Z,17.80
2018-03-23T06:10:38.563Z,18.10
2018-03-23T06:11:38.459Z,17.40
2018-03-23T06:12:38.356Z,16.70
2018-03-23T06:13:38.257Z,16.70
2018-03-23T06:14:38.150Z,17.00
2018-03-23T06:15:38.046Z,15.90
2018-03-23T06:16:37.944Z,16.30
2018-03-23T06:17:37.841Z,16.70
2018-03-23T06:18:37.736Z,17.10
2018-03-23T06:19:37.632Z,17.50
2018-03-23T06:20:37.530Z,16.30
2018-03-23T06:21:37.414Z,17.70
2018-03-23T06:22:37.324Z,17.10
2018-03-23T06:23:37.207Z,17.80
2018-03-23T06:24:37.105Z,16.70
2018-03-23T06:25:36.999Z,16.00
2018-03-23T06:26:37.146Z,16.20
2018-03-23T06:27:36.795Z,16.30
2018-03-23T06:28:36.689Z,15.90
2018-03-23T06:29:36.586Z,17.30
2018-03-23T06:30:36.482Z,15.90
2018-03-23T06:31:36.380Z,17.50
2018-03-23T06:32:36.276Z,16.50
2018-03-23T06:33:36.188Z,16.10
2018-03-23T06:34:36.069Z,17.80
2018-03-23T06:35:35.978Z,17.70
2018-03-23T06:36:35.862Z,17.60
2018-03-23T06:37:35.759Z,16.80
2018-03-23T06:38:35.664Z,16.50
2018-03-23T06:39:35.553Z,17.50
2018-03-23T06:40:35.449Z,17.20
2018-03-23T06:41:35.337Z,18.20
2018-03-23T06:42:35.246Z,17.10
2018-03-23T06:43:35.134Z,17.20
2018-03-23T06:44:35.025Z,17.60
2018-03-23T06:45:34.921Z,17.60
2018-03-23T06:46:34.817Z,17.90
2018-03-23T06:47:34.714Z,17.60
2018-03-23T06:48:34.622Z,19.20
2018-03-23T06:49:34.511Z,18.70
2018-03-23T06:50:34.410Z,17.70
2018-03-23T06:51:34.305Z,18.20
2018-03-23T06:52:34.198Z,17.00
2018-03-23T06:53:34.094Z,17.10
2018-03-23T06:54:33.991Z,17.40
2018-03-23T06:55:33.887Z,19.30
2018-03-23T06:56:33.784Z,20.00
2018-03-23T06:57:33.685Z,19.70
2018-03-23T06:58:33.578Z,19.10
2018-03-23T06:59:33.475Z,18.30
2018-03-23T07:00:33.375Z,19.10
2018-03-23T07:01:33.268Z,20.00
2018-03-23T07:02:33.165Z,19.50
2018-03-23T07:03:33.061Z,19.30
2018-03-23T07:04:32.957Z,20.70
2018-03-23T07:05:32.856Z,19.70
2018-03-23T07:06:32.756Z,19.30
2018-03-23T07:07:32.648Z,20.20
2018-03-23T07:08:32.544Z,20.40
2018-03-23T07:09:32.442Z,19.80
2018-03-23T07:10:32.338Z,20.10
2018-03-23T07:11:32.234Z,20.00
2018-03-23T07:12:32.132Z,18.90
2018-03-23T07:13:32.029Z,18.60
2018-03-23T07:14:31.924Z,18.80
2018-03-23T07:15:31.862Z,19.20
2018-03-23T07:16:31.718Z,19.20
2018-03-23T07:17:31.615Z,19.20
2018-03-23T07:18:31.512Z,19.50
2018-03-23T07:19:31.418Z,19.80
2018-03-23T07:20:31.305Z,19.90
2018-03-23T07:21:31.202Z,19.10
2018-03-23T07:22:31.099Z,20.40
2018-03-23T07:23:30.995Z,19.90
2018-03-23T07:24:30.892Z,20.20
2018-03-23T07:25:30.789Z,19.50
2018-03-23T07:26:30.685Z,20.50
2018-03-23T07:27:30.581Z,18.90
2018-03-23T07:28:30.479Z,19.30
2018-03-23T07:29:30.364Z,18.70
2018-03-23T07:30:30.263Z,19.10
2018-03-23T07:31:30.168Z,19.60
2018-03-23T07:32:30.065Z,19.40
2018-03-23T07:33:29.950Z,18.60
2018-03-23T07:34:29.846Z,19.70
2018-03-23T07:35:29.743Z,18.50
2018-03-23T07:36:29.640Z,18.70
2018-03-23T07:37:29.536Z,20.60
2018-03-23T07:38:29.433Z,19.60
2018-03-23T07:39:29.329Z,19.10
2018-03-23T07:40:29.226Z,18.20
2018-03-23T07:41:29.122Z,18.50
2018-03-23T07:42:29.020Z,17.70
2018-03-23T07:43:28.928Z,18.00
2018-03-23T07:44:28.813Z,16.70
2018-03-23T07:45:28.711Z,18.00
2018-03-23T07:46:28.610Z,17.70
2018-03-23T07:47:28.503Z,17.00
2018-03-23T07:48:28.412Z,17.70
2018-03-23T07:49:28.297Z,18.10
2018-03-23T07:50:28.212Z,18.30
2018-03-23T07:51:28.101Z,17.80
2018-03-23T07:52:27.999Z,17.70
2018-03-23T07:53:27.895Z,17.90
2018-03-23T07:54:27.792Z,17.70
2018-03-23T07:55:27.689Z,19.40
2018-03-23T07:56:27.585Z,18.30
2018-03-23T07:57:27.482Z,19.40
2018-03-23T07:58:27.379Z,17.60
2018-03-23T07:59:27.276Z,17.50
2018-03-23T08:00:27.172Z,17.90
2018-03-23T08:01:27.068Z,18.90
2018-03-23T08:02:26.970Z,19.20
2018-03-23T08:03:26.863Z,19.70
2018-03-23T08:04:26.761Z,19.30
2018-03-23T08:05:26.658Z,21.70
2018-03-23T08:06:26.552Z,20.50
2018-03-23T08:07:26.449Z,18.20
2018-03-23T08:08:26.346Z,19.50
2018-03-23T08:09:26.242Z,21.70
2018-03-23T08:10:26.139Z,21.60
2018-03-23T08:11:26.047Z,21.00
2018-03-23T08:12:25.943Z,21.30
2018-03-23T08:13:25.840Z,21.10
2018-03-23T08:14:25.737Z,20.80
2018-03-23T08:15:25.637Z,20.70
2018-03-23T08:16:25.531Z,21.30
2018-03-23T08:17:25.427Z,20.80
2018-03-23T08:18:25.325Z,22.60
2018-03-23T08:19:25.221Z,20.30
2018-03-23T08:20:25.117Z,21.90
2018-03-23T08:21:25.015Z,19.90
2018-03-23T08:22:24.912Z,21.60
2018-03-23T08:23:24.822Z,20.60
2018-03-23T08:24:24.703Z,20.50
2018-03-23T08:25:24.601Z,20.90
2018-03-23T08:26:24.497Z,21.80
2018-03-23T08:27:24.395Z,21.90
2018-03-23T08:28:24.304Z,19.80
2018-03-23T08:29:24.189Z,20.60
2018-03-23T08:30:24.098Z,21.40
2018-03-23T08:31:23.994Z,21.70
2018-03-23T08:32:23.892Z,21.20
2018-03-23T08:33:23.788Z,20.50
2018-03-23T08:34:23.684Z,21.50
2018-03-23T08:35:23.580Z,21.60
2018-03-23T08:36:23.531Z,20.60
2018-03-23T08:37:23.375Z,20.00
2018-03-23T08:38:23.272Z,19.80
2018-03-23T08:39:23.168Z,21.20
2018-03-23T08:40:23.064Z,22.20
2018-03-23T08:41:22.961Z,22.20
2018-03-23T08:42:22.858Z,21.90
2018-03-23T08:43:22.765Z,22.60
2018-03-23T08:44:22.673Z,19.80
2018-03-23T08:45:22.559Z,20.00
2018-03-23T08:46:22.456Z,20.50
2018-03-23T08:47:22.353Z,21.10
2018-03-23T08:48:22.254Z,21.30
2018-03-23T08:49:22.146Z,20.10
2018-03-23T08:50:22.045Z,22.00
2018-03-23T08:51:21.941Z,20.80
2018-03-23T08:52:21.836Z,20.00
2018-03-23T08:53:21.733Z,20.90
2018-03-23T08:54:21.645Z,21.30
2018-03-23T08:55:21.527Z,21.40
2018-03-23T08:56:21.426Z,22.60
2018-03-23T08:57:21.333Z,23.00
2018-03-23T08:58:21.231Z,21.20
2018-03-23T08:59:21.131Z,21.90
2018-03-23T09:00:21.023Z,22.10
2018-03-23T09:01:20.920Z,22.90
2018-03-23T09:02:20.816Z,22.90
2018-03-23T09:03:20.713Z,23.10
2018-03-23T09:04:20.610Z,22.60
2018-03-23T09:05:20.505Z,23.20
2018-03-23T09:06:20.402Z,25.10
2018-03-23T09:07:20.299Z,23.00
2018-03-23T09:08:20.210Z,23.70
2018-03-23T09:09:20.105Z,23.10
2018-03-23T09:10:20.004Z,23.30
2018-03-23T09:11:19.898Z,22.60
2018-03-23T09:12:19.795Z,21.80
2018-03-23T09:13:19.692Z,23.40
2018-03-23T09:14:19.588Z,23.00
2018-03-23T09:15:19.493Z,23.70
2018-03-23T09:16:19.389Z,23.00
2018-03-23T09:17:19.278Z,23.80
2018-03-23T09:18:19.176Z,23.80
2018-03-23T09:19:19.073Z,23.80
2018-03-23T09:20:18.982Z,22.50
2018-03-23T09:21:18.878Z,23.90
2018-03-23T09:22:18.775Z,24.00
2018-03-23T09:23:18.673Z,24.00
2018-03-23T09:24:18.568Z,24.10
2018-03-23T09:25:18.465Z,24.00
2018-03-23T09:26:18.363Z,23.00
2018-03-23T09:27:18.259Z,23.80
2018-03-23T09:28:18.155Z,23.70
2018-03-23T09:29:18.052Z,24.30
2018-03-23T09:30:17.962Z,23.00
2018-03-23T09:31:17.857Z,22.80
2018-03-23T09:32:17.754Z,22.10
2018-03-23T09:33:17.651Z,22.40
2018-03-23T09:34:17.547Z,23.30
2018-03-23T09:35:17.445Z,22.80
2018-03-23T09:36:17.340Z,24.40
2018-03-23T09:37:17.246Z,24.80
2018-03-23T09:38:17.134Z,24.70
2018-03-23T09:39:17.030Z,22.60
2018-03-23T09:40:16.928Z,22.90
2018-03-23T09:41:16.824Z,24.20
2018-03-23T09:42:16.722Z,23.70
2018-03-23T09:43:16.632Z,24.70
2018-03-23T09:44:16.527Z,23.80
2018-03-23T09:45:16.424Z,25.10
2018-03-23T09:46:16.321Z,24.80
2018-03-23T09:47:16.217Z,23.40
2018-03-23T09:48:16.115Z,24.20
2018-03-23T09:49:16.011Z,25.00
2018-03-23T09:50:15.907Z,22.10
2018-03-23T09:51:15.806Z,24.40
2018-03-23T09:52:15.705Z,23.10
2018-03-23T09:53:15.598Z,21.70
2018-03-23T09:54:15.505Z,23.20
2018-03-23T09:55:15.404Z,21.30
2018-03-23T09:56:15.313Z,22.90
2018-03-23T09:57:15.205Z,22.90
2018-03-23T09:58:15.092Z,22.00
2018-03-23T09:59:14.989Z,22.10
2018-03-23T10:00:14.885Z,21.70
2018-03-23T10:01:14.783Z,22.40
2018-03-23T10:02:14.680Z,21.70
2018-03-23T10:03:14.578Z,22.00
2018-03-23T10:04:14.486Z,21.30
2018-03-23T10:05:14.385Z,22.50
2018-03-23T10:06:14.280Z,21.20
2018-03-23T10:07:14.176Z,21.30
2018-03-23T10:08:14.076Z,21.30
2018-03-23T10:09:13.970Z,20.50
2018-03-23T10:10:13.866Z,21.90
2018-03-23T10:11:13.763Z,20.60
2018-03-23T10:12:13.660Z,21.50
2018-03-23T10:13:13.568Z,21.80
2018-03-23T10:14:13.464Z,20.60
2018-03-23T10:15:13.362Z,21.10
2018-03-23T10:16:13.265Z,21.40
2018-03-23T10:17:13.155Z,20.50
2018-03-23T10:18:13.064Z,21.60
2018-03-23T10:19:12.951Z,21.70
2018-03-23T10:20:12.845Z,20.40
2018-03-23T10:21:12.787Z,20.80
2018-03-23T10:22:12.640Z,21.60
2018-03-23T10:23:12.535Z,21.50
2018-03-23T10:24:12.431Z,20.50
2018-03-23T10:25:12.328Z,21.00
2018-03-23T10:26:12.225Z,19.90
2018-03-23T10:27:12.123Z,19.90
2018-03-23T10:28:12.031Z,20.10
2018-03-23T10:29:11.962Z,20.60
2018-03-23T10:30:11.824Z,20.40
2018-03-23T10:31:11.722Z,19.30
2018-03-23T10:32:11.618Z,19.80
2018-03-23T10:33:11.515Z,20.30
2018-03-23T10:34:11.411Z,19.60
2018-03-23T10:35:11.309Z,20.80
2018-03-23T10:36:11.205Z,20.90
2018-03-23T10:37:11.102Z,20.70
2018-03-23T10:38:10.998Z,22.00
2018-03-23T10:39:10.898Z,21.00
2018-03-23T10:40:10.791Z,20.00
2018-03-23T10:41:10.696Z,22.00
2018-03-23T10:42:10.584Z,21.80
2018-03-23T10:43:10.481Z,22.20
2018-03-23T10:44:10.378Z,23.20
2018-03-23T10:45:10.276Z,21.90
2018-03-23T10:46:10.172Z,23.20
2018-03-23T10:47:10.069Z,21.20
2018-03-23T10:48:09.965Z,21.60
2018-03-23T10:49:09.862Z,23.30
2018-03-23T10:50:09.759Z,24.60
2018-03-23T10:51:09.655Z,23.10
2018-03-23T10:52:09.572Z,23.60
2018-03-23T10:53:09.460Z,24.00
2018-03-23T10:54:09.346Z,24.30
2018-03-23T10:55:09.253Z,23.50
2018-03-23T10:56:09.152Z,23.20
2018-03-23T10:57:09.063Z,23.40
2018-03-23T10:58:08.943Z,23.50
2018-03-23T10:59:08.839Z,23.20
2018-03-23T11:00:08.736Z,23.90
2018-03-23T11:01:08.634Z,22.70
2018-03-23T11:02:08.530Z,23.20
2018-03-23T11:03:08.431Z,22.50
2018-03-23T11:04:08.323Z,24.30
2018-03-23T11:05:08.219Z,23.80
2018-03-23T11:06:08.116Z,23.50
2018-03-23T11:07:08.013Z,22.60
2018-03-23T11:08:07.910Z,22.80
2018-03-23T11:09:07.807Z,22.30
2018-03-23T11:10:07.706Z,23.30
2018-03-23T11:11:07.600Z,22.50
2018-03-23T11:12:07.497Z,23.20
2018-03-23T11:13:07.393Z,21.70
2018-03-23T11:14:07.292Z,21.80
2018-03-23T11:15:07.187Z,22.60
2018-03-23T11:16:07.084Z,23.10
2018-03-23T11:17:06.980Z,22.20
2018-03-23T11:18:06.878Z,23.60
2018-03-23T11:19:06.787Z,22.00
2018-03-23T11:20:06.675Z,22.70
2018-03-23T11:21:06.567Z,22.30
2018-03-23T11:22:06.467Z,21.60
2018-03-23T11:23:06.360Z,22.60
2018-03-23T11:24:06.261Z,23.10
2018-03-23T11:25:06.153Z,21.00
2018-03-23T11:26:06.051Z,21.80
2018-03-23T11:27:05.947Z,21.60
2018-03-23T11:28:05.845Z,22.30
2018-03-23T11:29:05.740Z,24.80
2018-03-23T11:30:05.637Z,20.80
2018-03-23T11:31:05.534Z,21.50
2018-03-23T11:32:05.431Z,23.10
2018-03-23T11:33:05.332Z,22.40
2018-03-23T11:34:05.224Z,21.70
2018-03-23T11:35:05.125Z,22.60
2018-03-23T11:36:05.017Z,22.60
2018-03-23T11:37:04.917Z,22.90
2018-03-23T11:38:04.810Z,22.70
2018-03-23T11:39:04.707Z,22.10
2018-03-23T11:40:04.606Z,24.30
2018-03-23T11:41:04.500Z,22.30
2018-03-23T11:42:04.397Z,21.40
2018-03-23T11:43:04.294Z,22.70
2018-03-23T11:44:04.191Z,23.70
2018-03-23T11:45:04.087Z,22.60
2018-03-23T11:46:03.984Z,22.80
2018-03-23T11:47:03.880Z,23.80
2018-03-23T11:48:03.777Z,23.30
2018-03-23T11:49:03.679Z,24.40
2018-03-23T11:50:03.573Z,21.40
2018-03-23T11:51:03.467Z,22.60
2018-03-23T11:52:03.364Z,23.40
2018-03-23T11:53:03.261Z,22.30
2018-03-23T11:54:03.159Z,23.60
2018-03-23T11:55:03.055Z,23.30
2018-03-23T11:56:02.951Z,23.00
2018-03-23T11:57:02.847Z,22.10
2018-03-23T11:58:02.744Z,22.30
2018-03-23T11:59:02.640Z,23.20
2018-03-23T12:00:02.537Z,24.50
2018-03-23T12:01:02.434Z,23.70
2018-03-23T12:02:02.360Z,24.00
2018-03-23T12:03:02.241Z,22.90
2018-03-23T12:04:02.127Z,22.00
2018-03-23T12:05:02.024Z,23.30
2018-03-23T12:06:01.917Z,22.50
2018-03-23T12:07:01.815Z,23.40
2018-03-23T12:08:01.712Z,22.50
2018-03-23T12:09:01.607Z,22.10
2018-03-23T12:10:01.504Z,21.80
2018-03-23T12:11:01.401Z,22.50
2018-03-23T12:12:01.297Z,21.80
2018-03-23T12:13:01.194Z,23.70
2018-03-23T12:14:01.091Z,22.80
2018-03-23T12:15:00.988Z,23.20
2018-03-23T12:16:00.884Z,21.90
2018-03-23T12:17:00.780Z,23.30
2018-03-23T12:18:00.678Z,26.10
2018-03-23T12:19:00.578Z,24.80
2018-03-23T12:20:00.479Z,21.90
2018-03-23T12:21:00.368Z,21.60
2018-03-23T12:22:00.264Z,22.70
2018-03-23T12:23:00.163Z,23.40
2018-03-23T12:24:00.058Z,23.30
2018-03-23T12:24:59.954Z,24.60
2018-03-23T12:25:59.851Z,24.40
2018-03-23T12:26:59.748Z,22.40
2018-03-23T12:27:59.644Z,22.60
2018-03-23T12:28:59.570Z,22.70
2018-03-23T12:29:59.442Z,22.60
2018-03-23T12:30:59.334Z,21.80
2018-03-23T12:31:59.261Z,21.70
2018-03-23T12:32:59.128Z,24.80
2018-03-23T12:33:59.041Z,22.70
2018-03-23T12:34:58.960Z,21.70
2018-03-23T12:35:58.817Z,21.10
2018-03-23T12:36:58.703Z,20.60
2018-03-23T12:37:58.619Z,20.90
2018-03-23T12:38:58.496Z,21.30
2018-03-23T12:39:58.404Z,22.00
2018-03-23T12:40:58.289Z,23.10
2018-03-23T12:41:58.186Z,24.10
2018-03-23T12:42:58.083Z,24.60
2018-03-23T12:43:57.982Z,24.60
2018-03-23T12:44:57.876Z,24.00
2018-03-23T12:45:57.773Z,23.90
2018-03-23T12:46:57.670Z,24.70
2018-03-23T12:47:57.566Z,23.90
2018-03-23T12:48:57.464Z,24.50
2018-03-23T12:49:57.360Z,24.80
2018-03-23T12:50:57.308Z,24.80